createdAt,value
2023-02-11T00:02:30.022Z,18.45
2023-02-11T00:04:57.780Z,19.17
2023-02-11T00:07:24.919Z,19.52
2023-02-11T00:12:38.364Z,20.75
2023-02-11T00:15:07.940Z,18.85
2023-02-11T00:17:36.765Z,21.70
2023-02-11T00:20:07.193Z,20.05
2023-02-11T00:22:35.170Z,16.73
2023-02-11T00:25:04.903Z,15.65
2023-02-11T00:27:32.571Z,17.00
2023-02-11T00:30:02.325Z,17.67
2023-02-11T00:32:29.424Z,18.02
2023-02-11T00:35:03.200Z,18.25
2023-02-11T00:37:31.907Z,17.42
2023-02-11T00:40:01.215Z,15.75
2023-02-11T00:42:28.238Z,16.40
2023-02-11T00:44:55.756Z,17.08
2023-02-11T00:47:23.010Z,17.70
2023-02-11T00:49:50.382Z,16.83
2023-02-11T00:52:17.412Z,16.80
2023-02-11T00:54:45.042Z,17.33
2023-02-11T00:57:12.263Z,16.15
2023-02-11T00:59:40.442Z,15.85
2023-02-11T01:02:07.572Z,19.15
2023-02-11T01:04:35.458Z,17.67
2023-02-11T01:07:02.582Z,16.45
2023-02-11T01:09:30.151Z,15.10
2023-02-11T01:11:57.164Z,15.80
2023-02-11T01:14:24.873Z,16.95
2023-02-11T01:16:52.682Z,17.27
2023-02-11T01:19:20.654Z,19.15
2023-02-11T01:21:47.869Z,18.05
2023-02-11T01:24:16.384Z,18.52
2023-02-11T01:26:43.384Z,17.85
2023-02-11T01:29:10.772Z,20.15
2023-02-11T01:31:38.263Z,15.68
2023-02-11T01:34:05.760Z,17.48
2023-02-11T01:36:33.048Z,17.77
2023-02-11T01:39:00.418Z,17.20
2023-02-11T01:41:27.496Z,16.10
2023-02-11T01:43:54.880Z,16.17
2023-02-11T01:46:38.753Z,15.32
2023-02-11T01:49:10.340Z,16.42
2023-02-11T01:51:42.405Z,16.67
2023-02-11T01:54:33.653Z,13.23
2023-02-11T01:57:24.203Z,16.83
2023-02-11T02:00:00.565Z,15.43
2023-02-11T02:02:37.787Z,15.07
2023-02-11T02:05:14.957Z,16.77
2023-02-11T02:07:56.541Z,16.77
2023-02-11T02:10:27.208Z,17.17
2023-02-11T02:12:54.824Z,14.52
2023-02-11T02:15:24.552Z,15.48
2023-02-11T02:18:17.551Z,16.15
2023-02-11T02:20:50.886Z,15.63
2023-02-11T02:23:26.874Z,16.08
2023-02-11T02:28:58.765Z,14.63
2023-02-11T02:31:53.393Z,18.13
2023-02-11T02:34:36.322Z,20.42
2023-02-11T02:37:17.477Z,18.63
2023-02-11T02:39:48.548Z,18.98
2023-02-11T02:42:17.124Z,18.63
2023-02-11T02:44:50.679Z,16.67
2023-02-11T02:47:18.165Z,19.88
2023-02-11T02:49:45.428Z,18.15
2023-02-11T02:52:35.682Z,18.65
2023-02-11T02:55:35.137Z,17.75
2023-02-11T02:58:24.185Z,15.75
2023-02-11T03:01:22.283Z,16.38
2023-02-11T03:03:53.753Z,16.65
2023-02-11T03:06:42.449Z,18.23
2023-02-11T03:09:19.604Z,18.23
2023-02-11T03:11:46.668Z,16.10
2023-02-11T03:14:17.513Z,15.02
2023-02-11T03:16:48.766Z,15.85
2023-02-11T03:19:24.760Z,17.25
2023-02-11T03:21:53.801Z,14.85
2023-02-11T03:24:28.372Z,15.55
2023-02-11T03:26:59.489Z,18.30
2023-02-11T03:29:57.375Z,16.75
2023-02-11T03:32:41.596Z,16.88
2023-02-11T03:35:15.323Z,16.50
2023-02-11T03:38:07.756Z,17.27
2023-02-11T03:40:41.446Z,16.00
2023-02-11T03:43:17.922Z,16.30
2023-02-11T03:45:49.672Z,19.25
2023-02-11T03:48:40.435Z,15.95
2023-02-11T03:51:11.187Z,15.27
2023-02-11T03:56:11.258Z,17.90
2023-02-11T03:58:38.276Z,15.93
2023-02-11T04:01:09.009Z,18.42
2023-02-11T04:03:39.284Z,17.27
2023-02-11T04:06:08.781Z,15.18
2023-02-11T04:08:36.179Z,16.70
2023-02-11T04:13:37.132Z,16.92
2023-02-11T04:16:04.715Z,16.80
2023-02-11T04:18:31.944Z,17.05
2023-02-11T04:21:00.975Z,18.90
2023-02-11T04:23:28.497Z,17.10
2023-02-11T04:25:57.101Z,17.35
2023-02-11T04:28:24.378Z,24.67
2023-02-11T04:30:51.878Z,27.90
2023-02-11T04:33:19.264Z,26.27
2023-02-11T04:35:46.927Z,23.48
2023-02-11T04:38:14.469Z,22.02
2023-02-11T04:40:43.670Z,20.55
2023-02-11T04:43:10.846Z,17.25
2023-02-11T04:45:46.384Z,15.00
2023-02-11T04:48:13.380Z,19.77
2023-02-11T04:50:41.692Z,22.02
2023-02-11T04:53:08.842Z,21.75
2023-02-11T04:55:36.344Z,19.25
2023-02-11T04:58:03.533Z,20.70
2023-02-11T05:00:31.006Z,21.35
2023-02-11T05:02:58.031Z,17.33
2023-02-11T05:05:25.630Z,22.58
2023-02-11T05:07:53.071Z,20.33
2023-02-11T05:10:20.619Z,24.52
2023-02-11T05:12:49.349Z,25.20
2023-02-11T05:15:16.876Z,22.25
2023-02-11T05:17:44.472Z,22.15
2023-02-11T05:20:11.996Z,21.23
2023-02-11T05:22:39.124Z,21.40
2023-02-11T05:25:08.875Z,23.58
2023-02-11T05:27:37.033Z,21.58
2023-02-11T05:30:06.165Z,23.52
2023-02-11T05:32:34.030Z,24.20
2023-02-11T05:35:01.733Z,21.05
2023-02-11T05:37:28.899Z,25.73
2023-02-11T05:39:56.340Z,23.10
2023-02-11T05:42:23.980Z,24.88
2023-02-11T05:44:54.324Z,22.60
2023-02-11T05:47:21.483Z,25.75
2023-02-11T05:49:50.175Z,24.85
2023-02-11T05:52:17.638Z,29.90
2023-02-11T05:54:45.500Z,31.63
2023-02-11T05:57:14.263Z,29.02
2023-02-11T05:59:41.953Z,27.67
2023-02-11T06:02:09.652Z,27.42
2023-02-11T06:04:37.942Z,29.13
2023-02-11T06:07:05.305Z,24.02
2023-02-11T06:09:32.939Z,27.35
2023-02-11T06:12:00.253Z,26.90
2023-02-11T06:14:33.839Z,26.55
2023-02-11T06:17:08.947Z,26.25
2023-02-11T06:19:36.687Z,26.48
2023-02-11T06:22:05.087Z,27.05
2023-02-11T06:24:55.012Z,26.38
2023-02-11T06:27:20.954Z,27.42
2023-02-11T06:29:57.064Z,23.83
2023-02-11T06:32:43.335Z,26.15
2023-02-11T06:35:45.771Z,27.50
2023-02-11T06:38:13.053Z,28.60
2023-02-11T06:40:40.770Z,30.65
2023-02-11T06:43:07.889Z,25.52
2023-02-11T06:45:35.424Z,28.65
2023-02-11T06:48:02.785Z,26.70
2023-02-11T06:50:30.453Z,28.90
2023-02-11T06:53:01.377Z,27.25
2023-02-11T06:55:29.257Z,26.65
2023-02-11T06:57:57.876Z,27.55
2023-02-11T07:00:26.979Z,33.13
2023-02-11T07:02:54.222Z,30.80
2023-02-11T07:05:22.441Z,31.65
2023-02-11T07:07:50.152Z,34.03
2023-02-11T07:10:17.784Z,33.60
2023-02-11T07:12:44.862Z,33.15
2023-02-11T07:15:12.434Z,31.33
2023-02-11T07:20:23.776Z,31.10
2023-02-11T07:22:51.829Z,30.98
2023-02-11T07:25:20.090Z,31.85
2023-02-11T07:27:57.436Z,32.50
2023-02-11T07:30:40.340Z,30.80
2023-02-11T07:33:26.581Z,28.15
2023-02-11T07:35:54.828Z,33.10
2023-02-11T07:41:11.083Z,31.80
2023-02-11T07:43:54.831Z,33.40
2023-02-11T07:46:51.600Z,32.63
2023-02-11T07:49:20.530Z,36.58
2023-02-11T07:51:49.611Z,34.20
2023-02-11T07:54:21.063Z,30.48
2023-02-11T07:59:48.632Z,31.67
2023-02-11T08:02:19.648Z,29.35
2023-02-11T08:04:53.723Z,31.80
2023-02-11T08:07:25.238Z,33.30
2023-02-11T08:09:54.562Z,31.13
2023-02-11T08:12:24.894Z,34.67
2023-02-11T08:14:52.616Z,32.47
2023-02-11T08:17:22.772Z,32.08
2023-02-11T08:19:53.493Z,32.90
2023-02-11T08:24:54.388Z,25.67
2023-02-11T08:27:22.287Z,31.70
2023-02-11T08:29:49.550Z,32.55
2023-02-11T08:32:18.779Z,35.00
2023-02-11T08:34:46.289Z,31.63
2023-02-11T08:37:16.058Z,35.65
2023-02-11T08:39:43.036Z,33.33
2023-02-11T08:42:10.904Z,28.70
2023-02-11T08:44:49.534Z,30.38
2023-02-11T08:47:21.005Z,28.88
2023-02-11T08:49:48.540Z,31.58
2023-02-11T08:52:16.340Z,29.88
2023-02-11T08:54:44.050Z,25.40
2023-02-11T08:57:11.602Z,27.92
2023-02-11T08:59:42.813Z,24.90
2023-02-11T09:02:14.306Z,13.70
2023-02-11T09:04:42.430Z,11.38
2023-02-11T09:07:10.352Z,8.73
2023-02-11T09:09:37.543Z,9.52
2023-02-11T09:14:47.459Z,6.88
2023-02-11T09:17:17.968Z,5.47
2023-02-11T09:19:47.447Z,6.65
2023-02-11T09:22:15.204Z,6.80
2023-02-11T09:24:52.832Z,5.63
2023-02-11T09:27:20.472Z,7.22
2023-02-11T09:29:50.716Z,5.95
2023-02-11T09:32:20.410Z,7.50
2023-02-11T09:34:48.488Z,7.03
2023-02-11T09:37:20.905Z,6.93
2023-02-11T09:39:48.162Z,9.68
2023-02-11T09:42:40.521Z,9.18
2023-02-11T09:45:34.414Z,8.32
2023-02-11T09:48:12.704Z,8.13
2023-02-11T09:50:43.952Z,6.90
2023-02-11T09:58:55.113Z,7.80
2023-02-11T10:01:41.454Z,7.78
2023-02-11T10:04:18.263Z,6.53
2023-02-11T10:06:50.931Z,7.38
2023-02-11T10:09:49.800Z,6.30
2023-02-11T10:12:48.438Z,6.03
2023-02-11T10:15:41.021Z,6.35
2023-02-11T10:18:33.556Z,6.68
2023-02-11T10:21:49.352Z,6.18
2023-02-11T10:24:19.846Z,6.70
2023-02-11T10:26:49.812Z,6.93
2023-02-11T10:29:35.710Z,6.65
2023-02-11T10:32:30.922Z,7.10
2023-02-11T10:38:09.255Z,6.72
2023-02-11T10:40:36.873Z,4.07
2023-02-11T10:43:18.727Z,5.43
2023-02-11T10:45:56.925Z,4.35
2023-02-11T10:51:35.379Z,4.25
2023-02-11T10:54:19.756Z,3.75
2023-02-11T10:59:44.294Z,5.15
2023-02-11T11:02:44.575Z,5.03
2023-02-11T11:05:22.122Z,4.63
2023-02-11T11:08:00.394Z,3.63
2023-02-11T11:16:37.553Z,3.70
2023-02-11T11:21:49.833Z,3.97
2023-02-11T11:24:34.716Z,4.53
2023-02-11T11:27:05.593Z,4.43
2023-02-11T11:29:39.658Z,4.60
2023-02-11T11:32:20.202Z,5.38
2023-02-11T11:34:56.168Z,4.28
2023-02-11T11:37:28.887Z,3.53
2023-02-11T11:40:22.812Z,3.92
2023-02-11T11:43:17.588Z,3.60
2023-02-11T11:46:02.173Z,4.20
2023-02-11T11:48:42.759Z,4.30
2023-02-11T11:51:13.749Z,4.40
2023-02-11T11:53:46.193Z,4.63
2023-02-11T11:56:27.651Z,4.63
2023-02-11T11:59:04.351Z,5.20
2023-02-11T12:01:51.679Z,5.03
2023-02-11T12:04:37.622Z,5.63
2023-02-11T12:07:46.655Z,5.70
2023-02-11T12:10:33.283Z,6.68
2023-02-11T12:13:28.500Z,5.43
2023-02-11T12:16:12.092Z,5.95
2023-02-11T12:19:17.246Z,6.05
2023-02-11T12:22:12.664Z,5.28
2023-02-11T12:25:17.489Z,5.25
2023-02-11T12:27:55.536Z,4.47
2023-02-11T12:30:22.758Z,5.20
2023-02-11T12:33:27.674Z,5.97
2023-02-11T12:39:40.423Z,6.30
2023-02-11T12:42:29.142Z,5.47
2023-02-11T12:44:57.037Z,7.15
2023-02-11T12:47:44.742Z,5.95
2023-02-11T12:50:30.805Z,7.07
2023-02-11T12:53:25.494Z,6.70
2023-02-11T13:01:45.278Z,5.97
2023-02-11T13:04:20.417Z,5.22
2023-02-11T13:12:56.665Z,6.80
2023-02-11T13:15:25.939Z,5.40
2023-02-11T13:17:57.653Z,5.13
2023-02-11T13:21:03.547Z,4.53
2023-02-11T13:24:00.793Z,5.38
2023-02-11T13:26:47.737Z,5.85
2023-02-11T13:29:20.793Z,4.80
2023-02-11T13:32:21.572Z,6.28
2023-02-11T13:34:52.787Z,6.85
2023-02-11T13:37:24.359Z,5.43
2023-02-11T13:39:58.775Z,5.07
2023-02-11T13:42:26.725Z,5.80
2023-02-11T13:44:58.844Z,6.40
2023-02-11T13:47:29.266Z,6.68
2023-02-11T13:55:35.026Z,3.83
2023-02-11T13:58:08.548Z,4.68
2023-02-11T14:00:37.384Z,4.45
2023-02-11T14:03:32.954Z,4.47
2023-02-11T14:06:30.103Z,3.90
2023-02-11T14:09:17.417Z,4.25
2023-02-11T14:11:49.461Z,4.15
2023-02-11T14:14:32.638Z,3.55
2023-02-11T14:17:02.030Z,4.07
2023-02-11T14:19:39.885Z,4.20
2023-02-11T14:25:28.028Z,4.95
2023-02-11T14:28:25.249Z,3.95
2023-02-11T14:31:08.964Z,3.65
2023-02-11T14:38:04.350Z,3.72
2023-02-11T14:41:02.938Z,2.70
2023-02-11T14:43:50.278Z,3.47
2023-02-11T14:46:22.227Z,4.72
2023-02-11T14:48:53.338Z,4.75
2023-02-11T14:51:39.666Z,4.07
2023-02-11T14:54:17.187Z,4.65
2023-02-11T14:56:47.800Z,4.57
2023-02-11T14:59:23.070Z,5.20
2023-02-11T15:01:54.898Z,5.38
2023-02-11T15:04:27.193Z,4.55
2023-02-11T15:06:58.267Z,5.03
2023-02-11T15:09:34.511Z,5.78
2023-02-11T15:12:02.047Z,4.95
2023-02-11T15:14:33.675Z,4.30
2023-02-11T15:17:08.277Z,5.18
2023-02-11T15:19:40.017Z,5.65
2023-02-11T15:22:18.658Z,4.97
2023-02-11T15:24:57.651Z,5.20
2023-02-11T15:27:25.973Z,6.13
2023-02-11T15:29:53.147Z,5.65
2023-02-11T15:32:23.964Z,5.18
2023-02-11T15:34:54.340Z,4.97
2023-02-11T15:37:29.963Z,5.53
2023-02-11T15:40:19.359Z,6.82
2023-02-11T15:43:07.781Z,6.57
2023-02-11T15:45:41.732Z,6.63
2023-02-11T15:48:21.392Z,6.68
2023-02-11T15:51:00.474Z,5.65
2023-02-11T15:53:53.743Z,7.10
2023-02-11T15:56:26.632Z,6.68
2023-02-11T15:58:57.338Z,6.35
2023-02-11T16:04:31.178Z,7.05
2023-02-11T16:06:58.356Z,7.20
2023-02-11T16:09:36.549Z,8.13
2023-02-11T16:12:22.677Z,5.78
2023-02-11T16:14:52.647Z,8.38
2023-02-11T16:17:25.344Z,8.70
2023-02-11T16:19:57.654Z,9.35
2023-02-11T16:25:02.948Z,8.23
2023-02-11T16:27:38.157Z,7.72
2023-02-11T16:30:40.540Z,8.88
2023-02-11T16:33:11.254Z,7.47
2023-02-11T16:35:38.701Z,10.02
2023-02-11T16:38:06.441Z,6.20
2023-02-11T16:40:38.687Z,6.00
2023-02-11T16:43:06.734Z,7.88
2023-02-11T16:45:42.863Z,9.38
2023-02-11T16:48:16.903Z,10.80
2023-02-11T16:51:34.423Z,9.82
2023-02-11T16:54:06.327Z,9.82
2023-02-11T16:56:34.286Z,9.45
2023-02-11T16:59:04.145Z,9.57
2023-02-11T17:01:32.765Z,10.27
2023-02-11T17:04:00.311Z,9.77
2023-02-11T17:06:28.741Z,9.45
2023-02-11T17:08:55.806Z,9.80
2023-02-11T17:11:23.278Z,8.02
2023-02-11T17:13:50.493Z,9.48
2023-02-11T17:16:21.041Z,8.00
2023-02-11T17:18:49.153Z,8.45
2023-02-11T17:21:16.951Z,7.55
2023-02-11T17:23:45.872Z,8.15
2023-02-11T17:26:13.200Z,7.80
2023-02-11T17:28:40.345Z,8.00
2023-02-11T17:31:09.595Z,8.48
2023-02-11T17:33:37.884Z,7.05
2023-02-11T17:36:07.293Z,5.47
2023-02-11T17:38:35.613Z,8.98
2023-02-11T17:41:04.917Z,8.82
2023-02-11T17:43:32.185Z,7.55
2023-02-11T17:45:59.705Z,8.50
2023-02-11T17:48:26.909Z,9.85
2023-02-11T17:50:54.269Z,9.35
2023-02-11T17:53:21.235Z,6.53
2023-02-11T17:55:48.856Z,9.00
2023-02-11T17:58:16.329Z,9.32
2023-02-11T18:00:43.819Z,10.00
2023-02-11T18:03:10.859Z,8.95
2023-02-11T18:05:38.828Z,8.73
2023-02-11T18:08:07.717Z,8.15
2023-02-11T18:10:36.296Z,10.63
2023-02-11T18:13:08.039Z,10.35
2023-02-11T18:15:35.981Z,9.77
2023-02-11T18:18:05.903Z,8.18
2023-02-11T18:23:24.329Z,9.70
2023-02-11T18:25:58.110Z,10.25
2023-02-11T18:28:27.365Z,8.75
2023-02-11T18:33:30.049Z,7.82
2023-02-11T18:35:57.921Z,10.27
2023-02-11T18:38:26.106Z,11.00
2023-02-11T18:40:57.849Z,10.07
2023-02-11T18:43:26.106Z,9.75
2023-02-11T18:45:54.895Z,13.27
2023-02-11T18:48:23.014Z,10.95
2023-02-11T18:50:50.520Z,11.05
2023-02-11T18:53:18.915Z,11.05
2023-02-11T18:55:48.492Z,11.35
2023-02-11T18:58:23.291Z,12.85
2023-02-11T19:03:22.764Z,10.77
2023-02-11T19:05:50.924Z,10.23
2023-02-11T19:08:20.263Z,11.30
2023-02-11T19:10:56.712Z,11.60
2023-02-11T19:13:49.549Z,11.43
2023-02-11T19:16:20.116Z,10.25
2023-02-11T19:18:47.334Z,11.18
2023-02-11T19:21:14.846Z,13.10
2023-02-11T19:23:44.360Z,11.20
2023-02-11T19:26:11.752Z,10.50
2023-02-11T19:28:39.477Z,10.70
2023-02-11T19:31:09.244Z,9.68
2023-02-11T19:33:36.730Z,10.73
2023-02-11T19:36:06.052Z,11.82
2023-02-11T19:38:33.194Z,11.95
2023-02-11T19:41:00.650Z,10.80
2023-02-11T19:43:28.069Z,9.98
2023-02-11T19:45:59.416Z,10.75
2023-02-11T19:48:26.684Z,12.02
2023-02-11T19:50:54.738Z,10.98
2023-02-11T19:53:21.898Z,12.02
2023-02-11T19:55:52.654Z,13.32
2023-02-11T19:58:19.856Z,10.65
2023-02-11T20:00:47.376Z,12.93
2023-02-11T20:03:14.529Z,12.85
2023-02-11T20:05:47.086Z,12.77
2023-02-11T20:08:17.191Z,13.23
2023-02-11T20:10:44.595Z,9.77
2023-02-11T20:13:14.021Z,14.32
2023-02-11T20:15:42.236Z,11.23
2023-02-11T20:18:09.323Z,13.07
2023-02-11T20:20:44.277Z,13.38
2023-02-11T20:23:41.212Z,13.25
2023-02-11T20:26:21.665Z,14.18
2023-02-11T20:28:51.106Z,14.73
2023-02-11T20:33:48.689Z,11.65
2023-02-11T20:36:23.779Z,12.82
2023-02-11T20:38:52.520Z,12.02
2023-02-11T20:41:26.234Z,14.40
2023-02-11T20:43:55.899Z,14.15
2023-02-11T20:46:29.194Z,13.68
2023-02-11T20:48:58.407Z,12.93
2023-02-11T20:51:30.616Z,13.88
2023-02-11T20:53:58.506Z,9.45
2023-02-11T20:56:30.008Z,13.73
2023-02-11T20:58:59.932Z,12.95
2023-02-11T21:01:41.076Z,13.95
2023-02-11T21:04:12.428Z,15.20
2023-02-11T21:06:46.998Z,14.77
2023-02-11T21:09:17.674Z,7.75
2023-02-11T21:11:45.006Z,10.10
2023-02-11T21:14:12.912Z,14.68
2023-02-11T21:16:40.328Z,17.90
2023-02-11T21:19:07.384Z,16.83
2023-02-11T21:21:37.209Z,16.35
2023-02-11T21:26:35.739Z,14.63
2023-02-11T21:29:07.320Z,16.23
2023-02-11T21:31:36.250Z,17.02
2023-02-11T21:34:03.469Z,14.35
2023-02-11T21:36:31.433Z,16.52
2023-02-11T21:38:58.878Z,16.08
2023-02-11T21:41:28.179Z,16.15
2023-02-11T21:43:55.350Z,15.55
2023-02-11T21:46:23.491Z,16.05
2023-02-11T21:48:50.685Z,14.23
2023-02-11T21:51:21.157Z,15.43
2023-02-11T21:53:48.187Z,14.57
2023-02-11T21:56:18.581Z,14.68
2023-02-11T21:58:49.204Z,16.35
2023-02-11T22:01:25.679Z,15.20
2023-02-11T22:03:52.859Z,15.23
2023-02-11T22:06:26.400Z,13.80
2023-02-11T22:08:55.020Z,15.93
2023-02-11T22:11:24.363Z,13.43
2023-02-11T22:13:56.496Z,16.38
2023-02-11T22:16:25.874Z,15.85
2023-02-11T22:18:53.496Z,15.73
2023-02-11T22:21:22.698Z,13.52
2023-02-11T22:23:52.052Z,13.25
2023-02-11T22:26:23.911Z,16.42
2023-02-11T22:28:52.224Z,16.60
2023-02-11T22:31:22.821Z,17.73
2023-02-11T22:33:51.151Z,18.77
2023-02-11T22:36:39.384Z,16.35
2023-02-11T22:39:15.313Z,16.85
2023-02-11T22:41:44.583Z,17.25
2023-02-11T22:44:22.539Z,17.92
2023-02-11T22:46:50.990Z,16.48
2023-02-11T22:49:20.019Z,16.42
2023-02-11T22:51:48.401Z,15.63
2023-02-11T22:54:18.562Z,16.33
2023-02-11T22:56:49.679Z,17.23
2023-02-11T22:59:17.153Z,17.80
2023-02-11T23:01:45.117Z,16.30
2023-02-11T23:04:14.944Z,16.67
2023-02-11T23:06:43.232Z,13.25
2023-02-11T23:09:13.957Z,17.98
2023-02-11T23:11:41.770Z,18.52
2023-02-11T23:14:12.356Z,18.88
2023-02-11T23:16:40.021Z,18.73
2023-02-11T23:19:08.953Z,19.27
2023-02-11T23:21:38.845Z,20.35
2023-02-11T23:24:10.556Z,19.98
2023-02-11T23:26:40.194Z,21.00
2023-02-11T23:29:07.536Z,20.65
2023-02-11T23:31:39.896Z,22.00
2023-02-11T23:34:09.103Z,22.75
2023-02-11T23:36:37.178Z,21.45
2023-02-11T23:39:05.061Z,20.25
2023-02-11T23:41:34.445Z,18.92
2023-02-11T23:44:01.484Z,21.25
2023-02-11T23:46:28.942Z,20.90
2023-02-11T23:48:56.296Z,20.05
2023-02-11T23:51:24.013Z,20.02
2023-02-11T23:53:51.755Z,20.35
2023-02-11T23:56:21.495Z,19.70
2023-02-11T23:58:49.991Z,18.33
